Weather History for Cody, WY

Change the Weather History Date:

Friday, July 5, 2013

  Actual Average Record
Temperature  
Mean Temperature 68 °F -  
Max Temperature 75 °F 86 °F 101 °F (1937)
Min Temperature 60 °F 53 °F 36 °F (1972)
Cooling Degree Days 2    
Growing Degree Days 18 (Base 50)    
Moisture  
Dew Point 55 °F    
Average Humidity 63    
Maximum Humidity 82    
Minimum Humidity 47    
Precipitation  
Precipitation 0.01 in - - ()
Sea Level Pressure  
Sea Level Pressure 29.92 in    
Wind  
Wind Speed 11 mph (WNW)    
Max Wind Speed 25 mph    
Max Gust Speed 37 mph    
Visibility 10 miles    
Events Thunderstorm    
Averages and records for this station are not official NWS values.
T = Trace of Precipitation, MM = Missing Value Source: NWS Daily Summary

Daily Weather History Graph

Daily Weather History Graph

Search for Another Location

Airport:

Trip Planner

Search our weather history database for the weather conditions in past years. The results will help you decide how hot, cold, wet, or windy it might be!

Date:

Astronomy

Jul. 05, 2013 Rise Set
Actual Time 5:37 AM MDT 9:03 PM MDT
Civil Twilight 5:01 AM MDT 9:39 PM MDT
Nautical Twilight 4:13 AM MDT 10:27 PM MDT
Astronomical Twilight 3:13 AM MDT 11:27 PM MDT
Moon 3:41 AM MDT (7/5) 6:58 PM MDT (7/5)
Length of Visible Light 16h 38m
Length of Day
15h 25m
Waning Crescent, 6% of the Moon is Illuminated
Jul 5
Waning Crescent
Jul 8
New
Jul 15
First Quarter
Jul 22
Full
Jul 29
Last Quarter

Hourly Weather History & Observations

Time (MDT) Temp. Dew Point Humidity Pressure Visibility Wind Dir Wind Speed Gust Speed Precip Events Conditions
12:15 AM 60.8 °F 55.4 °F 82% 29.98 in 10.0 mi South 10.4 mph - N/A   Clear
12:35 AM 62.6 °F 55.4 °F 77% 29.97 in 10.0 mi South 9.2 mph - N/A   Clear
12:55 AM 60.8 °F 55.4 °F 82% 29.96 in 10.0 mi SSW 8.1 mph - N/A   Clear
1:15 AM 60.8 °F 55.4 °F 82% 29.96 in 10.0 mi South 6.9 mph - N/A   Clear
1:35 AM 60.8 °F 55.4 °F 82% 29.95 in 10.0 mi South 6.9 mph - N/A   Clear
1:55 AM 60.8 °F 55.4 °F 82% 29.94 in 10.0 mi SSE 11.5 mph - N/A   Clear
2:15 AM 60.8 °F 55.4 °F 82% 29.93 in 10.0 mi SSW 16.1 mph 19.6 mph N/A   Clear
2:35 AM 60.8 °F 55.4 °F 82% 29.92 in 10.0 mi SSW 15.0 mph - N/A   Clear
2:55 AM 60.8 °F 55.4 °F 82% 29.91 in 10.0 mi SSW 4.6 mph - N/A   Clear
3:35 AM 62.6 °F 55.4 °F 77% 29.91 in 10.0 mi SSE 12.7 mph - N/A   Clear
3:55 AM 62.6 °F 55.4 °F 77% 29.92 in 10.0 mi Calm Calm - N/A   Clear
4:15 AM 60.8 °F 55.4 °F 82% 29.92 in 10.0 mi West 3.5 mph - N/A   Clear
4:35 AM 60.8 °F 55.4 °F 82% 29.90 in 10.0 mi NW 3.5 mph - N/A   Clear
4:55 AM 60.8 °F 55.4 °F 82% 29.90 in 10.0 mi Calm Calm - N/A   Partly Cloudy
5:15 AM 62.6 °F 55.4 °F 77% 29.91 in 10.0 mi SW 19.6 mph - N/A   Partly Cloudy
5:35 AM 64.4 °F 53.6 °F 68% 29.91 in 10.0 mi South 13.8 mph - N/A   Clear
5:55 AM 64.4 °F 53.6 °F 68% 29.90 in 10.0 mi SW 25.3 mph 34.5 mph N/A   Scattered Clouds
6:15 AM 64.4 °F 53.6 °F 68% 29.91 in 10.0 mi WSW 18.4 mph 32.2 mph N/A   Scattered Clouds
6:35 AM 62.6 °F 53.6 °F 72% 29.91 in 10.0 mi SW 23.0 mph 33.4 mph N/A   Mostly Cloudy
6:55 AM 62.6 °F 53.6 °F 72% 29.91 in 10.0 mi SW 23.0 mph 31.1 mph N/A   Mostly Cloudy
7:15 AM 64.4 °F 51.8 °F 64% 29.90 in 10.0 mi SW 23.0 mph 36.8 mph N/A   Mostly Cloudy
7:55 AM 66.2 °F 51.8 °F 60% 29.89 in 10.0 mi WSW 11.5 mph 20.7 mph N/A   Mostly Cloudy
8:15 AM 68.0 °F 50.0 °F 52% 29.89 in 10.0 mi SW 10.4 mph 16.1 mph N/A   Scattered Clouds
8:35 AM 69.8 °F 51.8 °F 53% 29.90 in 10.0 mi West 12.7 mph 18.4 mph N/A   Mostly Cloudy
8:55 AM 69.8 °F 51.8 °F 53% 29.90 in 10.0 mi WNW 9.2 mph - N/A   Mostly Cloudy
9:15 AM 71.6 °F 53.6 °F 53% 29.90 in 10.0 mi WNW 12.7 mph 21.9 mph N/A   Scattered Clouds
9:35 AM 73.4 °F 53.6 °F 50% 29.91 in 10.0 mi West 13.8 mph 18.4 mph N/A   Clear
9:55 AM 75.2 °F 53.6 °F 47% 29.91 in 10.0 mi North 5.8 mph - N/A   Clear
10:15 AM 73.4 °F 55.4 °F 53% 29.93 in 10.0 mi NNE 11.5 mph 16.1 mph N/A   Clear
10:35 AM 73.4 °F 57.2 °F 57% 29.94 in 10.0 mi North 17.3 mph 21.9 mph N/A   Clear
10:55 AM 73.4 °F 55.4 °F 53% 29.94 in 10.0 mi North 17.3 mph 21.9 mph N/A   Clear
11:15 AM 73.4 °F 55.4 °F 53% 29.94 in 10.0 mi North 17.3 mph 21.9 mph N/A   Clear
11:35 AM 73.4 °F 55.4 °F 53% 29.95 in 10.0 mi North 17.3 mph 24.2 mph N/A   Clear
11:55 AM 75.2 °F 55.4 °F 50% 29.94 in 10.0 mi NNE 12.7 mph 24.2 mph N/A   Clear
12:15 PM 75.2 °F 55.4 °F 50% 29.94 in 10.0 mi North 16.1 mph 23.0 mph N/A   Clear
12:55 PM 75.2 °F 55.4 °F 50% 29.92 in 10.0 mi NNE 18.4 mph 24.2 mph N/A   Clear
1:15 PM 73.4 °F 55.4 °F 53% 29.93 in 10.0 mi North 15.0 mph 21.9 mph N/A   Scattered Clouds
1:35 PM 71.6 °F 55.4 °F 57% 29.93 in 10.0 mi North 13.8 mph - N/A   Mostly Cloudy
1:55 PM 75.2 °F 55.4 °F 50% 29.93 in 10.0 mi North 15.0 mph 20.7 mph N/A   Scattered Clouds
2:15 PM 75.2 °F 53.6 °F 47% 29.93 in 10.0 mi NNE 12.7 mph 25.3 mph N/A   Partly Cloudy
2:35 PM 69.8 °F 55.4 °F 60% 29.95 in 10.0 mi North 17.3 mph 26.5 mph N/A   Mostly Cloudy
2:55 PM 66.2 °F 57.2 °F 73% 29.93 in 10.0 mi North 16.1 mph - N/A   Mostly Cloudy
3:15 PM 69.8 °F 57.2 °F 64% 29.93 in 10.0 mi NNW 10.4 mph - N/A   Scattered Clouds
3:35 PM 73.4 °F 55.4 °F 53% 29.93 in 10.0 mi North 13.8 mph - N/A   Partly Cloudy
3:55 PM 75.2 °F 55.4 °F 50% 29.92 in 10.0 mi NNE 10.4 mph - N/A   Clear
4:15 PM 73.4 °F 55.4 °F 53% 29.92 in 10.0 mi NNE 11.5 mph - N/A   Partly Cloudy
4:35 PM 73.4 °F 53.6 °F 50% 29.92 in 10.0 mi NNE 11.5 mph - N/A   Mostly Cloudy
4:55 PM 73.4 °F 53.6 °F 50% 29.91 in 10.0 mi NNE 10.4 mph - N/A   Scattered Clouds
5:15 PM 71.6 °F 53.6 °F 53% 29.91 in 10.0 mi NE 10.4 mph - N/A   Mostly Cloudy
5:35 PM 69.8 °F 53.6 °F 56% 29.90 in 10.0 mi NE 5.8 mph - N/A   Overcast
5:55 PM 71.6 °F 51.8 °F 50% 29.89 in 10.0 mi NE 5.8 mph - N/A   Scattered Clouds
6:15 PM 71.6 °F 53.6 °F 53% 29.89 in 10.0 mi Calm Calm - N/A   Mostly Cloudy
6:35 PM 71.6 °F 55.4 °F 57% 29.89 in 10.0 mi West 3.5 mph - N/A Thunderstorm Thunderstorm
6:55 PM 71.6 °F 55.4 °F 57% 29.90 in 10.0 mi West 5.8 mph - N/A Thunderstorm Mostly Cloudy
7:15 PM 71.6 °F 53.6 °F 53% 29.89 in 10.0 mi NW 3.5 mph - N/A   Overcast
7:35 PM 69.8 °F 59.0 °F 68% 29.89 in 10.0 mi West 4.6 mph - 0.01 in   Mostly Cloudy
7:55 PM 69.8 °F 53.6 °F 56% 29.89 in 10.0 mi West 4.6 mph - 0.01 in   Partly Cloudy
8:15 PM 69.8 °F 55.4 °F 60% 29.90 in 10.0 mi WNW 4.6 mph - N/A Thunderstorm Thunderstorm
8:35 PM 69.8 °F 53.6 °F 56% 29.92 in 10.0 mi SSE 6.9 mph - N/A   Overcast
8:55 PM 68.0 °F 51.8 °F 56% 29.92 in 10.0 mi WNW 6.9 mph - N/A   Mostly Cloudy
9:15 PM 68.0 °F 51.8 °F 56% 29.93 in 10.0 mi SSW 5.8 mph - N/A   Mostly Cloudy
9:35 PM 66.2 °F 53.6 °F 64% 29.92 in 10.0 mi SSW 8.1 mph 19.6 mph N/A   Mostly Cloudy
10:15 PM 64.4 °F 53.6 °F 68% 29.95 in 10.0 mi SW 12.7 mph 25.3 mph N/A   Mostly Cloudy
10:35 PM 64.4 °F 53.6 °F 68% 29.97 in 10.0 mi SW 11.5 mph - N/A   Overcast
11:15 PM 62.6 °F 55.4 °F 77% 29.95 in 10.0 mi SSW 8.1 mph - N/A   Scattered Clouds
11:35 PM 62.6 °F 55.4 °F 77% 29.94 in 10.0 mi SSE 12.7 mph - N/A   Clear
11:55 PM 62.6 °F 53.6 °F 72% 29.93 in 10.0 mi South 15.0 mph - N/A   Clear